Weather observations for the past three days for
Myrtle Beach International Airport
Imperial (Metric)
Date Time (edt) Wind (mph) Vis. (mi.) Weather Sky Cond. Temperature (ºF) Relative Humidity Wind Chill (°F) Heat Index (°F) Pressure Precipitation (in)
Air Dwpt 6 hour altimeter (in) sea level (mb) 1 hr 3 hr 6 hr
Max. Min.
05 13:53 S 12 10.00 Fair CLR 90 80.1 93 78.1 73% 108 29.88 1011.8
05 12:53 SW 8 10.00 Fair CLR 91.9 77 62% 106 29.9 1012.4
05 11:53 W 8 3.00 Fair with Haze CLR 89.1 77 68% 102 29.92 1013.3
05 10:53 W 9 10.00 Fair CLR 87.1 77 72% 99 29.94 1013.8
05 09:53 W 12 10.00 A Few Clouds FEW014 84 77 80% 94 29.95 1014.1
05 08:53 W 13 10.00 Partly Cloudy SCT007 81 78.1 91% 89 29.95 1014.1
05 07:53 W 6 10.00 Overcast OVC005 78.1 77 79 78.1 97% 81 29.95 1014.1
05 06:53 Vrbl 6 10.00 Fair CLR 78.1 77 97% 81 29.93 1013.4
05 05:53 W 6 10.00 Fair CLR 78.1 77 97% 81 29.92 1013.2
05 04:53 W 6 10.00 Fair CLR 78.1 77 97% 81 29.93 1013.5
05 03:53 SW 6 10.00 Fair CLR 78.1 77 97% 81 29.93 1013.6
05 02:53 SW 5 10.00 Fair CLR 78.1 77 97% 81 29.93 1013.6
05 01:53 W 3 10.00 NULL NULL 79 77 84 79 94% 83 29.95 1014.2
05 00:53 SW 6 10.00 Fair CLR 80.1 77 90% 86 29.97 1014.9
04 23:53 Vrbl 3 10.00 Fair CLR 81 77 88% 88 29.98 1015.1
04 22:53 SW 5 10.00 Fair CLR 81 78.1 91% 89 29.99 1015.6
04 21:53 S 5 10.00 Fair CLR 82 78.1 88% 91 29.99 1015.5
04 20:53 S 6 10.00 Fair CLR 82.9 78.1 85% 93 29.98 1015.1
04 19:53 S 14 10.00 Partly Cloudy SCT015 84 79 89.1 84 85% 96 29.97 1014.6
04 18:53 S 13 10.00 Fair CLR 84.9 79 82% 98 29.97 1014.7
04 17:53 S 13 G 20 10.00 Fair CLR 86 78.1 77% 98 29.97 1014.6
04 16:53 S 12 10.00 Fair CLR 87.1 78.1 75% 100 29.97 1014.9
04 15:53 S 10 10.00 Fair CLR 88 78.1 73% 102 30 1015.8
04 14:53 S 10 10.00 Fair CLR 87.1 78.1 75% 100 30.01 1016.2
04 13:53 S 10 10.00 Fair CLR 88 79 88 80.1 75% 103 30.03 1016.9
04 11:53 SE 10 10.00 A Few Clouds FEW002 87.1 78.1 75% 100 30.06 1017.9
04 10:53 S 10 10.00 Fair CLR 87.1 77 72% 99 30.06 1017.8
04 09:53 S 6 10.00 Mostly Cloudy BKN020 BKN026 86 78.1 77% 98 30.05 1017.5
04 08:53 Vrbl 5 10.00 A Few Clouds FEW016 84 79 85% 96 30.05 1017.6
04 07:53 N 3 10.00 Mostly Cloudy SCT016 BKN030 BKN034 81 79 81 78.1 94% 89 30.05 1017.4
04 06:53 Calm 10.00 Mostly Cloudy SCT016 BKN023 79 77 94% 83 30.04 1017.1
04 05:53 N 3 10.00 Mostly Cloudy SCT016 BKN022 79 78.1 97% 83 30.02 1016.6
04 04:53 Calm 10.00 Partly Cloudy FEW017 SCT022 79 78.1 97% 83 30.01 1016.2
04 03:53 Calm 10.00 Mostly Cloudy SCT016 BKN024 80.1 78.1 94% 86 30.01 1016.1
04 02:53 Calm 10.00 Mostly Cloudy BKN014 81 78.1 91% 89 30.02 1016.4
04 01:53 S 3 10.00 A Few Clouds FEW014 80.1 78.1 82.9 80.1 94% 86 30.03 1017.0
04 00:53 S 6 10.00 Fair CLR 81 78.1 91% 89 30.06 1017.7
03 23:53 S 7 10.00 Fair CLR 81 78.1 91% 89 30.06 1017.8
03 22:53 S 3 10.00 A Few Clouds FEW016 82 78.1 88% 91 30.06 1018.0
03 21:53 S 7 10.00 A Few Clouds FEW016 82 78.1 88% 91 30.06 1017.9
03 20:53 S 5 10.00 A Few Clouds FEW016 82 78.1 88% 91 30.04 1017.0
03 19:53 S 8 10.00 Partly Cloudy SCT015 82.9 78.1 87.1 82.9 85% 93 30.02 1016.6
03 18:53 SE 8 10.00 A Few Clouds FEW015 84 79 85% 96 30.03 1016.9
03 17:53 SE 10 10.00 A Few Clouds FEW015 86 79 80% 100 30.03 1016.9
03 16:53 SE 10 10.00 Fair CLR 86 78.1 77% 98 30.04 1017.2
03 15:53 SE 10 10.00 Fair CLR 87.1 77 72% 99 30.05 1017.6
03 14:53 SE 9 10.00 Fair CLR 86 78.1 77% 98 30.06 1017.9
03 13:53 SE 10 10.00 Fair CLR 86 78.1 87.1 79 77% 98 30.07 1018.3
03 12:53 SE 9 10.00 Fair CLR 86 79 80% 100 30.08 1018.6
03 11:53 SE 10 10.00 Fair CLR 86 78.1 77% 98 30.09 1018.8
03 10:53 SE 8 10.00 Mostly Cloudy FEW019 BKN050 86 78.1 77% 98 30.09 1018.8
03 09:53 Calm 10.00 Partly Cloudy SCT019 84 78.1 82% 95 30.08 1018.6
03 08:53 N 3 10.00 Fair CLR 82 78.1 88% 91 30.09 1018.7
03 07:53 N 3 10.00 Fair CLR 79 77 81 77 94% 83 30.09 1018.7
03 06:53 Calm 10.00 A Few Clouds FEW050 77 75.9 96% 78 30.06 1018.0
03 05:53 NW 3 10.00 Fair CLR 77 75.9 96% 78 30.06 1017.8
03 04:53 N 5 10.00 Fair CLR 77 75.9 96% 78 30.05 1017.5
03 03:53 Calm 10.00 Fair CLR 78.1 75.9 93% 81 30.04 1017.1
03 02:53 Calm 10.00 Fair CLR 79 75.9 90% 83 30.04 1017.0
03 01:53 S 5 10.00 Fair CLR 80.1 77 82.9 80.1 90% 86 30.04 1017.2
03 00:53 S 6 10.00 Fair CLR 82 77 85% 90 30.04 1017.2
02 23:53 S 8 10.00 Fair CLR 82 77 85% 90 30.03 1017.0
02 22:53 S 8 10.00 Fair CLR 82 78.1 88% 91 30.07 1018.2
02 21:53 S 8 10.00 Fair CLR 82 77 85% 90 30.08 1018.5
02 20:53 S 8 10.00 Fair CLR 82 77 85% 90 30.06 1017.8
02 19:53 S 8 10.00 Fair CLR 82.9 77 89.1 82.9 82% 92 30.04 1017.2
02 18:53 S 9 10.00 Fair CLR 84.9 77 77% 95 30.04 1017.1
02 17:53 S 12 10.00 Fair CLR 86 75.9 72% 96 30.03 1017.0
02 16:53 S 10 10.00 Fair CLR 87.1 75 67% 97 30.04 1017.3
02 15:53 S 13 10.00 Fair CLR 87.1 77 72% 99 30.06 1017.9
02 14:53 S 13 10.00 Fair CLR 89.1 78.1 70% 103 30.07 1018.2
Date Time (edt) Wind (mph) Vis. (mi.) Weather Sky Cond. Air Dwpt Max. Min. Relative Humidity Wind Chill (°F) Heat Index (°F) altimeter (in) sea level (mb) 1 hr 3 hr 6 hr
6 hour
Temperature (ºF) Pressure Precipitation (in)